sensor_id;sensor_type;location;lat;lon;timestamp;P1;durP1;ratioP1;P2;durP2;ratioP2
21754;SDS011;11039;50.028;19.938;2023-03-23T00:02:27;3.33;;;2.80;;
21754;SDS011;11039;50.028;19.938;2023-03-23T00:04:54;3.80;;;2.88;;
21754;SDS011;11039;50.028;19.938;2023-03-23T00:07:20;5.40;;;2.50;;
21754;SDS011;11039;50.028;19.938;2023-03-23T00:09:48;3.50;;;2.70;;
21754;SDS011;11039;50.028;19.938;2023-03-23T00:12:26;2.65;;;2.40;;
21754;SDS011;11039;50.028;19.938;2023-03-23T00:14:59;3.38;;;2.30;;
21754;SDS011;11039;50.028;19.938;2023-03-23T00:17:26;2.53;;;2.05;;
21754;SDS011;11039;50.028;19.938;2023-03-23T00:19:52;2.78;;;1.98;;
21754;SDS011;11039;50.028;19.938;2023-03-23T00:22:18;3.42;;;2.30;;
21754;SDS011;11039;50.028;19.938;2023-03-23T00:24:46;3.20;;;2.20;;
21754;SDS011;11039;50.028;19.938;2023-03-23T00:27:12;2.35;;;1.90;;
21754;SDS011;11039;50.028;19.938;2023-03-23T00:29:39;2.40;;;1.90;;
21754;SDS011;11039;50.028;19.938;2023-03-23T00:32:07;2.22;;;1.70;;
21754;SDS011;11039;50.028;19.938;2023-03-23T00:34:37;2.60;;;1.75;;
21754;SDS011;11039;50.028;19.938;2023-03-23T00:37:05;1.90;;;1.60;;
21754;SDS011;11039;50.028;19.938;2023-03-23T00:39:32;2.15;;;1.50;;
21754;SDS011;11039;50.028;19.938;2023-03-23T00:41:58;2.78;;;1.77;;
21754;SDS011;11039;50.028;19.938;2023-03-23T00:44:28;2.88;;;1.50;;
21754;SDS011;11039;50.028;19.938;2023-03-23T00:46:55;2.53;;;1.80;;
21754;SDS011;11039;50.028;19.938;2023-03-23T00:49:22;2.25;;;1.58;;
21754;SDS011;11039;50.028;19.938;2023-03-23T00:51:53;1.58;;;1.30;;
21754;SDS011;11039;50.028;19.938;2023-03-23T00:54:19;1.40;;;1.20;;
21754;SDS011;11039;50.028;19.938;2023-03-23T00:56:46;2.00;;;1.42;;
21754;SDS011;11039;50.028;19.938;2023-03-23T00:59:12;1.50;;;1.20;;
21754;SDS011;11039;50.028;19.938;2023-03-23T01:01:38;1.80;;;1.30;;
21754;SDS011;11039;50.028;19.938;2023-03-23T01:04:04;1.70;;;1.50;;
21754;SDS011;11039;50.028;19.938;2023-03-23T01:06:32;1.35;;;1.08;;
21754;SDS011;11039;50.028;19.938;2023-03-23T01:09:00;1.30;;;1.10;;
21754;SDS011;11039;50.028;19.938;2023-03-23T01:11:28;1.80;;;1.25;;
21754;SDS011;11039;50.028;19.938;2023-03-23T01:13:54;1.88;;;1.35;;
21754;SDS011;11039;50.028;19.938;2023-03-23T01:16:20;1.70;;;1.30;;
21754;SDS011;11039;50.028;19.938;2023-03-23T01:18:46;1.92;;;1.40;;
21754;SDS011;11039;50.028;19.938;2023-03-23T01:21:14;1.73;;;1.13;;
21754;SDS011;11039;50.028;19.938;2023-03-23T01:23:41;1.95;;;1.45;;
21754;SDS011;11039;50.028;19.938;2023-03-23T01:26:08;1.60;;;1.15;;
21754;SDS011;11039;50.028;19.938;2023-03-23T01:28:35;1.95;;;1.35;;
21754;SDS011;11039;50.028;19.938;2023-03-23T01:31:04;1.55;;;1.20;;
21754;SDS011;11039;50.028;19.938;2023-03-23T01:33:31;2.15;;;1.02;;
21754;SDS011;11039;50.028;19.938;2023-03-23T01:35:58;1.65;;;1.15;;
21754;SDS011;11039;50.028;19.938;2023-03-23T01:38:25;2.22;;;1.35;;
21754;SDS011;11039;50.028;19.938;2023-03-23T01:40:51;1.80;;;1.30;;
21754;SDS011;11039;50.028;19.938;2023-03-23T01:43:18;1.88;;;1.30;;
21754;SDS011;11039;50.028;19.938;2023-03-23T01:45:44;1.30;;;0.95;;
21754;SDS011;11039;50.028;19.938;2023-03-23T01:48:18;1.38;;;1.20;;
21754;SDS011;11039;50.028;19.938;2023-03-23T01:50:59;2.08;;;1.40;;
21754;SDS011;11039;50.028;19.938;2023-03-23T01:53:32;1.95;;;1.00;;
21754;SDS011;11039;50.028;19.938;2023-03-23T01:55:59;1.40;;;1.10;;
21754;SDS011;11039;50.028;19.938;2023-03-23T01:58:27;1.67;;;1.15;;
21754;SDS011;11039;50.028;19.938;2023-03-23T02:00:54;2.03;;;1.20;;
21754;SDS011;11039;50.028;19.938;2023-03-23T02:03:24;1.80;;;1.40;;
21754;SDS011;11039;50.028;19.938;2023-03-23T02:05:50;1.55;;;1.30;;
21754;SDS011;11039;50.028;19.938;2023-03-23T02:08:17;1.30;;;1.15;;
21754;SDS011;11039;50.028;19.938;2023-03-23T02:10:43;1.90;;;1.20;;
21754;SDS011;11039;50.028;19.938;2023-03-23T02:13:09;1.73;;;1.20;;
21754;SDS011;11039;50.028;19.938;2023-03-23T02:15:43;1.30;;;1.10;;
21754;SDS011;11039;50.028;19.938;2023-03-23T02:18:20;1.50;;;1.20;;
21754;SDS011;11039;50.028;19.938;2023-03-23T02:26:03;1.75;;;1.02;;
21754;SDS011;11039;50.028;19.938;2023-03-23T02:36:34;1.25;;;0.98;;
21754;SDS011;11039;50.028;19.938;2023-03-23T02:39:05;1.33;;;0.95;;
21754;SDS011;11039;50.028;19.938;2023-03-23T02:44:33;1.67;;;1.00;;
21754;SDS011;11039;50.028;19.938;2023-03-23T02:47:02;0.88;;;0.80;;
21754;SDS011;11039;50.028;19.938;2023-03-23T02:49:29;1.45;;;0.93;;
21754;SDS011;11039;50.028;19.938;2023-03-23T02:51:57;1.35;;;1.00;;
21754;SDS011;11039;50.028;19.938;2023-03-23T02:54:24;1.10;;;0.80;;
21754;SDS011;11039;50.028;19.938;2023-03-23T02:56:52;0.85;;;0.77;;
21754;SDS011;11039;50.028;19.938;2023-03-23T02:59:18;1.58;;;1.10;;
21754;SDS011;11039;50.028;19.938;2023-03-23T03:01:46;1.02;;;0.82;;
21754;SDS011;11039;50.028;19.938;2023-03-23T03:04:14;1.10;;;0.77;;
21754;SDS011;11039;50.028;19.938;2023-03-23T03:09:33;1.95;;;1.30;;
21754;SDS011;11039;50.028;19.938;2023-03-23T03:12:05;1.08;;;0.88;;
21754;SDS011;11039;50.028;19.938;2023-03-23T03:14:41;1.23;;;1.00;;
21754;SDS011;11039;50.028;19.938;2023-03-23T03:17:12;1.10;;;0.90;;
21754;SDS011;11039;50.028;19.938;2023-03-23T03:19:40;1.40;;;0.90;;
21754;SDS011;11039;50.028;19.938;2023-03-23T03:22:07;1.27;;;1.00;;
21754;SDS011;11039;50.028;19.938;2023-03-23T03:24:34;1.13;;;1.02;;
21754;SDS011;11039;50.028;19.938;2023-03-23T03:27:04;1.33;;;1.08;;
21754;SDS011;11039;50.028;19.938;2023-03-23T03:29:35;1.20;;;0.93;;
21754;SDS011;11039;50.028;19.938;2023-03-23T03:32:03;1.13;;;0.82;;
21754;SDS011;11039;50.028;19.938;2023-03-23T03:34:31;1.15;;;0.90;;
21754;SDS011;11039;50.028;19.938;2023-03-23T03:36:57;1.98;;;1.02;;
21754;SDS011;11039;50.028;19.938;2023-03-23T03:39:25;1.00;;;0.90;;
21754;SDS011;11039;50.028;19.938;2023-03-23T03:41:51;0.80;;;0.80;;
21754;SDS011;11039;50.028;19.938;2023-03-23T03:44:17;0.90;;;0.80;;
21754;SDS011;11039;50.028;19.938;2023-03-23T03:46:43;0.73;;;0.63;;
21754;SDS011;11039;50.028;19.938;2023-03-23T03:49:10;1.55;;;0.93;;
21754;SDS011;11039;50.028;19.938;2023-03-23T03:51:38;1.10;;;0.82;;
21754;SDS011;11039;50.028;19.938;2023-03-23T03:54:05;0.98;;;0.77;;
21754;SDS011;11039;50.028;19.938;2023-03-23T03:56:32;1.42;;;1.00;;
21754;SDS011;11039;50.028;19.938;2023-03-23T03:59:01;1.42;;;1.00;;
21754;SDS011;11039;50.028;19.938;2023-03-23T04:01:27;1.15;;;1.00;;
21754;SDS011;11039;50.028;19.938;2023-03-23T04:03:53;1.13;;;0.80;;
21754;SDS011;11039;50.028;19.938;2023-03-23T04:06:20;1.00;;;0.82;;
21754;SDS011;11039;50.028;19.938;2023-03-23T04:08:46;1.50;;;1.00;;
21754;SDS011;11039;50.028;19.938;2023-03-23T04:11:13;1.25;;;0.88;;
21754;SDS011;11039;50.028;19.938;2023-03-23T04:13:39;1.00;;;0.70;;
21754;SDS011;11039;50.028;19.938;2023-03-23T04:16:06;0.80;;;0.75;;
21754;SDS011;11039;50.028;19.938;2023-03-23T04:18:32;0.93;;;0.77;;
21754;SDS011;11039;50.028;19.938;2023-03-23T04:20:59;1.05;;;0.90;;
21754;SDS011;11039;50.028;19.938;2023-03-23T04:23:26;1.17;;;0.65;;
21754;SDS011;11039;50.028;19.938;2023-03-23T04:25:52;1.10;;;0.90;;
21754;SDS011;11039;50.028;19.938;2023-03-23T04:28:22;1.00;;;0.80;;
21754;SDS011;11039;50.028;19.938;2023-03-23T04:30:49;0.82;;;0.70;;
21754;SDS011;11039;50.028;19.938;2023-03-23T04:33:18;1.40;;;0.90;;
21754;SDS011;11039;50.028;19.938;2023-03-23T04:35:44;1.73;;;0.80;;
21754;SDS011;11039;50.028;19.938;2023-03-23T04:38:13;1.10;;;0.98;;
21754;SDS011;11039;50.028;19.938;2023-03-23T04:40:40;0.70;;;0.60;;
21754;SDS011;11039;50.028;19.938;2023-03-23T04:43:06;1.38;;;0.80;;
21754;SDS011;11039;50.028;19.938;2023-03-23T04:45:33;1.00;;;0.70;;
21754;SDS011;11039;50.028;19.938;2023-03-23T04:48:02;0.98;;;0.80;;
21754;SDS011;11039;50.028;19.938;2023-03-23T04:50:31;0.80;;;0.73;;
21754;SDS011;11039;50.028;19.938;2023-03-23T04:53:01;1.23;;;0.90;;
21754;SDS011;11039;50.028;19.938;2023-03-23T04:55:32;1.17;;;1.08;;
21754;SDS011;11039;50.028;19.938;2023-03-23T04:58:05;1.00;;;0.90;;
21754;SDS011;11039;50.028;19.938;2023-03-23T05:00:31;0.90;;;0.70;;
21754;SDS011;11039;50.028;19.938;2023-03-23T05:02:58;1.05;;;0.80;;
21754;SDS011;11039;50.028;19.938;2023-03-23T05:05:26;1.02;;;0.73;;
21754;SDS011;11039;50.028;19.938;2023-03-23T05:07:54;1.13;;;0.75;;
21754;SDS011;11039;50.028;19.938;2023-03-23T05:10:20;0.80;;;0.80;;
21754;SDS011;11039;50.028;19.938;2023-03-23T05:12:46;0.90;;;0.80;;
21754;SDS011;11039;50.028;19.938;2023-03-23T05:15:13;1.00;;;0.70;;
21754;SDS011;11039;50.028;19.938;2023-03-23T05:17:40;1.10;;;0.98;;
21754;SDS011;11039;50.028;19.938;2023-03-23T05:20:10;1.58;;;0.75;;
21754;SDS011;11039;50.028;19.938;2023-03-23T05:22:37;1.02;;;0.80;;
21754;SDS011;11039;50.028;19.938;2023-03-23T05:25:03;0.90;;;0.70;;
21754;SDS011;11039;50.028;19.938;2023-03-23T05:27:30;1.02;;;0.70;;
21754;SDS011;11039;50.028;19.938;2023-03-23T05:29:57;1.10;;;0.73;;
21754;SDS011;11039;50.028;19.938;2023-03-23T05:32:25;0.90;;;0.70;;
21754;SDS011;11039;50.028;19.938;2023-03-23T05:34:57;1.10;;;0.80;;
21754;SDS011;11039;50.028;19.938;2023-03-23T05:37:23;0.85;;;0.80;;
21754;SDS011;11039;50.028;19.938;2023-03-23T05:39:50;1.08;;;0.80;;
21754;SDS011;11039;50.028;19.938;2023-03-23T05:42:21;0.98;;;0.68;;
21754;SDS011;11039;50.028;19.938;2023-03-23T05:44:47;1.20;;;0.80;;
21754;SDS011;11039;50.028;19.938;2023-03-23T05:47:13;0.80;;;0.70;;
21754;SDS011;11039;50.028;19.938;2023-03-23T05:49:39;2.45;;;0.80;;
21754;SDS011;11039;50.028;19.938;2023-03-23T05:52:06;1.33;;;0.88;;
21754;SDS011;11039;50.028;19.938;2023-03-23T05:54:32;1.00;;;0.70;;
21754;SDS011;11039;50.028;19.938;2023-03-23T05:56:59;1.63;;;1.00;;
21754;SDS011;11039;50.028;19.938;2023-03-23T05:59:25;2.42;;;1.00;;
21754;SDS011;11039;50.028;19.938;2023-03-23T06:01:52;1.67;;;0.93;;
21754;SDS011;11039;50.028;19.938;2023-03-23T06:04:22;1.65;;;0.90;;
21754;SDS011;11039;50.028;19.938;2023-03-23T06:06:50;1.38;;;0.93;;
21754;SDS011;11039;50.028;19.938;2023-03-23T06:09:17;1.63;;;1.20;;
21754;SDS011;11039;50.028;19.938;2023-03-23T06:11:43;1.38;;;0.80;;
21754;SDS011;11039;50.028;19.938;2023-03-23T06:14:09;1.70;;;1.05;;
21754;SDS011;11039;50.028;19.938;2023-03-23T06:16:36;1.20;;;0.88;;
21754;SDS011;11039;50.028;19.938;2023-03-23T06:19:02;1.30;;;1.02;;
21754;SDS011;11039;50.028;19.938;2023-03-23T06:21:29;1.20;;;1.05;;
21754;SDS011;11039;50.028;19.938;2023-03-23T06:23:55;1.20;;;1.10;;
21754;SDS011;11039;50.028;19.938;2023-03-23T06:26:23;1.38;;;0.90;;
21754;SDS011;11039;50.028;19.938;2023-03-23T06:28:50;1.48;;;0.98;;
21754;SDS011;11039;50.028;19.938;2023-03-23T06:31:16;1.60;;;0.98;;
21754;SDS011;11039;50.028;19.938;2023-03-23T06:33:44;1.85;;;0.88;;
21754;SDS011;11039;50.028;19.938;2023-03-23T06:36:12;0.98;;;0.80;;
21754;SDS011;11039;50.028;19.938;2023-03-23T06:38:38;1.25;;;1.10;;
21754;SDS011;11039;50.028;19.938;2023-03-23T06:41:04;1.45;;;1.00;;
21754;SDS011;11039;50.028;19.938;2023-03-23T06:43:31;1.50;;;0.75;;
21754;SDS011;11039;50.028;19.938;2023-03-23T06:45:58;1.58;;;0.80;;
21754;SDS011;11039;50.028;19.938;2023-03-23T06:48:25;2.58;;;0.85;;
21754;SDS011;11039;50.028;19.938;2023-03-23T06:50:52;0.77;;;0.63;;
21754;SDS011;11039;50.028;19.938;2023-03-23T06:53:18;2.80;;;0.80;;
21754;SDS011;11039;50.028;19.938;2023-03-23T06:55:45;1.05;;;0.80;;
21754;SDS011;11039;50.028;19.938;2023-03-23T06:58:12;1.65;;;0.95;;
21754;SDS011;11039;50.028;19.938;2023-03-23T07:00:38;1.95;;;0.80;;
21754;SDS011;11039;50.028;19.938;2023-03-23T07:03:05;2.10;;;0.80;;
21754;SDS011;11039;50.028;19.938;2023-03-23T07:05:32;2.47;;;0.85;;
21754;SDS011;11039;50.028;19.938;2023-03-23T07:07:58;1.27;;;0.75;;
21754;SDS011;11039;50.028;19.938;2023-03-23T07:10:24;1.50;;;0.82;;
21754;SDS011;11039;50.028;19.938;2023-03-23T07:12:50;2.25;;;0.60;;
21754;SDS011;11039;50.028;19.938;2023-03-23T07:15:16;1.75;;;0.70;;
21754;SDS011;11039;50.028;19.938;2023-03-23T07:17:42;2.13;;;0.63;;
21754;SDS011;11039;50.028;19.938;2023-03-23T07:20:09;2.13;;;0.70;;
21754;SDS011;11039;50.028;19.938;2023-03-23T07:22:35;3.20;;;1.75;;
21754;SDS011;11039;50.028;19.938;2023-03-23T07:25:01;4.30;;;1.73;;
21754;SDS011;11039;50.028;19.938;2023-03-23T07:27:28;5.78;;;2.00;;
21754;SDS011;11039;50.028;19.938;2023-03-23T07:29:54;4.00;;;1.95;;
21754;SDS011;11039;50.028;19.938;2023-03-23T07:32:20;1.73;;;1.27;;
21754;SDS011;11039;50.028;19.938;2023-03-23T07:34:47;3.50;;;1.30;;
21754;SDS011;11039;50.028;19.938;2023-03-23T07:37:13;2.17;;;1.73;;
21754;SDS011;11039;50.028;19.938;2023-03-23T07:39:39;3.35;;;1.63;;
21754;SDS011;11039;50.028;19.938;2023-03-23T07:42:05;2.55;;;1.60;;
21754;SDS011;11039;50.028;19.938;2023-03-23T07:44:32;1.27;;;1.17;;
21754;SDS011;11039;50.028;19.938;2023-03-23T07:46:58;2.70;;;1.75;;
21754;SDS011;11039;50.028;19.938;2023-03-23T07:49:25;2.72;;;1.60;;
21754;SDS011;11039;50.028;19.938;2023-03-23T07:51:51;2.30;;;1.58;;
21754;SDS011;11039;50.028;19.938;2023-03-23T07:54:17;3.50;;;1.35;;
21754;SDS011;11039;50.028;19.938;2023-03-23T07:56:44;2.28;;;1.25;;
21754;SDS011;11039;50.028;19.938;2023-03-23T07:59:10;1.75;;;1.17;;
21754;SDS011;11039;50.028;19.938;2023-03-23T08:01:37;1.77;;;1.25;;
21754;SDS011;11039;50.028;19.938;2023-03-23T08:04:04;1.70;;;1.20;;
21754;SDS011;11039;50.028;19.938;2023-03-23T08:06:31;3.13;;;1.30;;
21754;SDS011;11039;50.028;19.938;2023-03-23T08:08:58;2.47;;;1.35;;
21754;SDS011;11039;50.028;19.938;2023-03-23T08:11:25;2.78;;;1.30;;
21754;SDS011;11039;50.028;19.938;2023-03-23T08:13:51;2.20;;;1.20;;
21754;SDS011;11039;50.028;19.938;2023-03-23T08:16:17;1.35;;;1.20;;
21754;SDS011;11039;50.028;19.938;2023-03-23T08:18:45;1.10;;;0.90;;
21754;SDS011;11039;50.028;19.938;2023-03-23T08:21:11;2.25;;;1.00;;
21754;SDS011;11039;50.028;19.938;2023-03-23T08:23:38;1.88;;;0.95;;
21754;SDS011;11039;50.028;19.938;2023-03-23T08:26:04;2.15;;;1.30;;
21754;SDS011;11039;50.028;19.938;2023-03-23T08:28:31;1.35;;;1.20;;
21754;SDS011;11039;50.028;19.938;2023-03-23T08:30:58;1.73;;;1.10;;
21754;SDS011;11039;50.028;19.938;2023-03-23T08:33:24;1.67;;;1.00;;
21754;SDS011;11039;50.028;19.938;2023-03-23T08:35:57;1.55;;;1.08;;
21754;SDS011;11039;50.028;19.938;2023-03-23T08:38:23;1.48;;;1.10;;
21754;SDS011;11039;50.028;19.938;2023-03-23T08:40:49;1.85;;;1.20;;
21754;SDS011;11039;50.028;19.938;2023-03-23T08:43:16;2.38;;;1.20;;
21754;SDS011;11039;50.028;19.938;2023-03-23T08:45:42;2.00;;;0.80;;
21754;SDS011;11039;50.028;19.938;2023-03-23T08:48:08;2.72;;;1.17;;
21754;SDS011;11039;50.028;19.938;2023-03-23T08:50:36;1.25;;;0.88;;
21754;SDS011;11039;50.028;19.938;2023-03-23T08:53:02;1.42;;;0.90;;
21754;SDS011;11039;50.028;19.938;2023-03-23T08:55:28;1.55;;;1.30;;
21754;SDS011;11039;50.028;19.938;2023-03-23T08:57:55;1.45;;;1.00;;
21754;SDS011;11039;50.028;19.938;2023-03-23T09:00:21;1.38;;;1.10;;
21754;SDS011;11039;50.028;19.938;2023-03-23T09:02:50;1.33;;;0.98;;
21754;SDS011;11039;50.028;19.938;2023-03-23T09:05:17;1.77;;;1.10;;
21754;SDS011;11039;50.028;19.938;2023-03-23T09:07:44;1.67;;;1.00;;
21754;SDS011;11039;50.028;19.938;2023-03-23T09:10:11;2.25;;;1.35;;
21754;SDS011;11039;50.028;19.938;2023-03-23T09:12:38;1.58;;;1.05;;
21754;SDS011;11039;50.028;19.938;2023-03-23T09:15:05;1.55;;;1.10;;
21754;SDS011;11039;50.028;19.938;2023-03-23T09:17:33;1.40;;;1.15;;
21754;SDS011;11039;50.028;19.938;2023-03-23T09:19:59;1.27;;;1.00;;
21754;SDS011;11039;50.028;19.938;2023-03-23T09:22:25;1.80;;;1.25;;
21754;SDS011;11039;50.028;19.938;2023-03-23T09:24:51;1.40;;;1.00;;
21754;SDS011;11039;50.028;19.938;2023-03-23T09:27:17;1.48;;;1.20;;
21754;SDS011;11039;50.028;19.938;2023-03-23T09:29:44;2.70;;;1.00;;
21754;SDS011;11039;50.028;19.938;2023-03-23T09:32:11;2.60;;;1.08;;
21754;SDS011;11039;50.028;19.938;2023-03-23T09:34:38;1.10;;;1.00;;
21754;SDS011;11039;50.028;19.938;2023-03-23T09:37:04;2.30;;;1.10;;
21754;SDS011;11039;50.028;19.938;2023-03-23T09:39:31;2.70;;;0.90;;
21754;SDS011;11039;50.028;19.938;2023-03-23T09:50:29;1.33;;;0.93;;
21754;SDS011;11039;50.028;19.938;2023-03-23T09:52:51;2.83;;;1.00;;
21754;SDS011;11039;50.028;19.938;2023-03-23T09:55:19;1.13;;;0.70;;
21754;SDS011;11039;50.028;19.938;2023-03-23T10:00:19;0.77;;;0.70;;
21754;SDS011;11039;50.028;19.938;2023-03-23T10:07:44;1.15;;;0.68;;
21754;SDS011;11039;50.028;19.938;2023-03-23T10:10:12;2.88;;;1.00;;
21754;SDS011;11039;50.028;19.938;2023-03-23T10:12:42;1.20;;;0.80;;
21754;SDS011;11039;50.028;19.938;2023-03-23T10:15:14;1.67;;;0.82;;
21754;SDS011;11039;50.028;19.938;2023-03-23T10:17:50;1.00;;;0.90;;
21754;SDS011;11039;50.028;19.938;2023-03-23T10:20:28;1.92;;;0.68;;
21754;SDS011;11039;50.028;19.938;2023-03-23T10:25:33;2.75;;;1.15;;
21754;SDS011;11039;50.028;19.938;2023-03-23T10:30:30;1.65;;;1.00;;
21754;SDS011;11039;50.028;19.938;2023-03-23T10:33:00;1.40;;;1.25;;
21754;SDS011;11039;50.028;19.938;2023-03-23T10:35:35;1.67;;;1.10;;
21754;SDS011;11039;50.028;19.938;2023-03-23T10:38:06;1.65;;;1.10;;
21754;SDS011;11039;50.028;19.938;2023-03-23T10:40:43;1.38;;;1.27;;
21754;SDS011;11039;50.028;19.938;2023-03-23T10:43:09;1.45;;;1.20;;
21754;SDS011;11039;50.028;19.938;2023-03-23T10:45:35;1.63;;;1.40;;
21754;SDS011;11039;50.028;19.938;2023-03-23T10:48:23;2.22;;;1.60;;
21754;SDS011;11039;50.028;19.938;2023-03-23T10:50:51;2.15;;;1.50;;
21754;SDS011;11039;50.028;19.938;2023-03-23T10:53:21;2.63;;;1.50;;
21754;SDS011;11039;50.028;19.938;2023-03-23T10:55:47;2.25;;;1.90;;
21754;SDS011;11039;50.028;19.938;2023-03-23T10:58:22;2.50;;;2.00;;
21754;SDS011;11039;50.028;19.938;2023-03-23T11:00:48;3.05;;;2.42;;
21754;SDS011;11039;50.028;19.938;2023-03-23T11:08:12;2.40;;;2.17;;
21754;SDS011;11039;50.028;19.938;2023-03-23T11:11:24;3.45;;;2.92;;
21754;SDS011;11039;50.028;19.938;2023-03-23T11:13:29;4.22;;;3.38;;
21754;SDS011;11039;50.028;19.938;2023-03-23T11:15:56;3.47;;;3.17;;
21754;SDS011;11039;50.028;19.938;2023-03-23T11:18:23;4.05;;;3.65;;
21754;SDS011;11039;50.028;19.938;2023-03-23T11:20:54;4.75;;;3.90;;
21754;SDS011;11039;50.028;19.938;2023-03-23T11:23:27;4.80;;;3.50;;
21754;SDS011;11039;50.028;19.938;2023-03-23T11:28:20;5.43;;;3.75;;
21754;SDS011;11039;50.028;19.938;2023-03-23T11:30:47;4.78;;;3.95;;
21754;SDS011;11039;50.028;19.938;2023-03-23T11:33:13;4.82;;;4.13;;
21754;SDS011;11039;50.028;19.938;2023-03-23T11:35:42;4.25;;;3.63;;
21754;SDS011;11039;50.028;19.938;2023-03-23T11:38:15;5.32;;;3.53;;
21754;SDS011;11039;50.028;19.938;2023-03-23T11:40:51;4.20;;;3.60;;
21754;SDS011;11039;50.028;19.938;2023-03-23T11:43:26;4.13;;;3.35;;
21754;SDS011;11039;50.028;19.938;2023-03-23T11:51:16;4.65;;;3.15;;
21754;SDS011;11039;50.028;19.938;2023-03-23T11:58:45;3.67;;;3.25;;
21754;SDS011;11039;50.028;19.938;2023-03-23T12:01:31;4.35;;;3.50;;
21754;SDS011;11039;50.028;19.938;2023-03-23T12:06:31;5.30;;;3.50;;
21754;SDS011;11039;50.028;19.938;2023-03-23T12:09:02;4.18;;;3.78;;
21754;SDS011;11039;50.028;19.938;2023-03-23T12:11:41;4.07;;;3.10;;
21754;SDS011;11039;50.028;19.938;2023-03-23T12:14:14;3.95;;;2.80;;
21754;SDS011;11039;50.028;19.938;2023-03-23T12:27:13;3.65;;;2.75;;
21754;SDS011;11039;50.028;19.938;2023-03-23T12:32:25;3.45;;;2.50;;
21754;SDS011;11039;50.028;19.938;2023-03-23T12:35:16;4.85;;;2.95;;
21754;SDS011;11039;50.028;19.938;2023-03-23T12:37:50;4.93;;;3.75;;
21754;SDS011;11039;50.028;19.938;2023-03-23T12:40:32;4.25;;;3.60;;
21754;SDS011;11039;50.028;19.938;2023-03-23T12:43:15;9.57;;;3.63;;
21754;SDS011;11039;50.028;19.938;2023-03-23T12:45:59;4.40;;;3.47;;
21754;SDS011;11039;50.028;19.938;2023-03-23T12:48:29;4.00;;;3.15;;
21754;SDS011;11039;50.028;19.938;2023-03-23T12:53:44;3.50;;;2.88;;
21754;SDS011;11039;50.028;19.938;2023-03-23T12:59:06;3.75;;;2.85;;
21754;SDS011;11039;50.028;19.938;2023-03-23T13:01:39;3.25;;;2.72;;
21754;SDS011;11039;50.028;19.938;2023-03-23T13:04:08;2.60;;;2.30;;
21754;SDS011;11039;50.028;19.938;2023-03-23T13:11:38;2.72;;;2.25;;
21754;SDS011;11039;50.028;19.938;2023-03-23T13:16:35;2.85;;;2.53;;
21754;SDS011;11039;50.028;19.938;2023-03-23T13:21:30;2.55;;;2.28;;
21754;SDS011;11039;50.028;19.938;2023-03-23T13:24:01;2.47;;;2.10;;
21754;SDS011;11039;50.028;19.938;2023-03-23T13:26:28;2.78;;;2.10;;
21754;SDS011;11039;50.028;19.938;2023-03-23T13:29:05;3.25;;;2.35;;
21754;SDS011;11039;50.028;19.938;2023-03-23T13:31:34;2.20;;;2.00;;
21754;SDS011;11039;50.028;19.938;2023-03-23T13:34:05;2.33;;;2.10;;
21754;SDS011;11039;50.028;19.938;2023-03-23T13:36:38;2.30;;;2.05;;
21754;SDS011;11039;50.028;19.938;2023-03-23T13:39:27;2.47;;;2.17;;
21754;SDS011;11039;50.028;19.938;2023-03-23T13:47:16;1.98;;;1.63;;
21754;SDS011;11039;50.028;19.938;2023-03-23T13:52:22;1.58;;;1.33;;
21754;SDS011;11039;50.028;19.938;2023-03-23T13:54:49;1.92;;;1.60;;
21754;SDS011;11039;50.028;19.938;2023-03-23T13:57:35;2.13;;;1.40;;
21754;SDS011;11039;50.028;19.938;2023-03-23T14:00:12;1.67;;;1.42;;
21754;SDS011;11039;50.028;19.938;2023-03-23T14:02:40;2.33;;;1.40;;
21754;SDS011;11039;50.028;19.938;2023-03-23T14:05:19;1.42;;;1.20;;
21754;SDS011;11039;50.028;19.938;2023-03-23T14:08:01;1.50;;;1.20;;
21754;SDS011;11039;50.028;19.938;2023-03-23T14:10:32;1.73;;;1.23;;
21754;SDS011;11039;50.028;19.938;2023-03-23T14:12:59;2.20;;;1.30;;
21754;SDS011;11039;50.028;19.938;2023-03-23T14:15:30;3.15;;;1.30;;
21754;SDS011;11039;50.028;19.938;2023-03-23T14:17:56;2.92;;;1.40;;
21754;SDS011;11039;50.028;19.938;2023-03-23T14:20:26;1.67;;;0.98;;
21754;SDS011;11039;50.028;19.938;2023-03-23T14:22:55;2.25;;;1.30;;
21754;SDS011;11039;50.028;19.938;2023-03-23T14:25:22;2.20;;;1.42;;
21754;SDS011;11039;50.028;19.938;2023-03-23T14:27:50;2.45;;;1.10;;
21754;SDS011;11039;50.028;19.938;2023-03-23T14:30:21;1.30;;;1.17;;
21754;SDS011;11039;50.028;19.938;2023-03-23T14:32:47;3.08;;;1.30;;
21754;SDS011;11039;50.028;19.938;2023-03-23T14:35:17;4.05;;;1.30;;
21754;SDS011;11039;50.028;19.938;2023-03-23T14:37:46;2.55;;;1.17;;
21754;SDS011;11039;50.028;19.938;2023-03-23T14:40:14;2.15;;;1.20;;
21754;SDS011;11039;50.028;19.938;2023-03-23T14:42:40;1.92;;;1.20;;
21754;SDS011;11039;50.028;19.938;2023-03-23T14:45:09;1.40;;;1.10;;
21754;SDS011;11039;50.028;19.938;2023-03-23T14:47:40;2.55;;;1.50;;
21754;SDS011;11039;50.028;19.938;2023-03-23T14:52:55;3.00;;;1.20;;
21754;SDS011;11039;50.028;19.938;2023-03-23T14:55:22;3.25;;;1.00;;
21754;SDS011;11039;50.028;19.938;2023-03-23T14:57:49;1.95;;;1.10;;
21754;SDS011;11039;50.028;19.938;2023-03-23T15:00:23;3.47;;;0.90;;
21754;SDS011;11039;50.028;19.938;2023-03-23T15:02:52;2.95;;;1.42;;
21754;SDS011;11039;50.028;19.938;2023-03-23T15:05:26;4.90;;;1.38;;
21754;SDS011;11039;50.028;19.938;2023-03-23T15:07:54;12.57;;;4.55;;
21754;SDS011;11039;50.028;19.938;2023-03-23T15:10:21;28.40;;;9.90;;
21754;SDS011;11039;50.028;19.938;2023-03-23T15:12:48;24.27;;;8.93;;
21754;SDS011;11039;50.028;19.938;2023-03-23T15:15:22;19.48;;;7.75;;
21754;SDS011;11039;50.028;19.938;2023-03-23T15:17:50;15.00;;;5.30;;
21754;SDS011;11039;50.028;19.938;2023-03-23T15:20:24;13.88;;;5.53;;
21754;SDS011;11039;50.028;19.938;2023-03-23T15:22:50;11.55;;;4.60;;
21754;SDS011;11039;50.028;19.938;2023-03-23T15:27:48;12.23;;;3.65;;
21754;SDS011;11039;50.028;19.938;2023-03-23T15:32:42;7.50;;;2.70;;
21754;SDS011;11039;50.028;19.938;2023-03-23T15:35:14;6.28;;;2.88;;
21754;SDS011;11039;50.028;19.938;2023-03-23T15:37:44;5.15;;;2.63;;
21754;SDS011;11039;50.028;19.938;2023-03-23T15:40:14;3.50;;;2.53;;
21754;SDS011;11039;50.028;19.938;2023-03-23T15:42:40;4.30;;;2.10;;
21754;SDS011;11039;50.028;19.938;2023-03-23T15:50:03;5.07;;;2.50;;
21754;SDS011;11039;50.028;19.938;2023-03-23T15:52:30;3.63;;;1.70;;
21754;SDS011;11039;50.028;19.938;2023-03-23T15:54:56;5.97;;;2.30;;
21754;SDS011;11039;50.028;19.938;2023-03-23T15:57:22;7.13;;;2.40;;
21754;SDS011;11039;50.028;19.938;2023-03-23T15:59:48;5.82;;;1.90;;
21754;SDS011;11039;50.028;19.938;2023-03-23T16:02:17;3.95;;;2.10;;
21754;SDS011;11039;50.028;19.938;2023-03-23T16:04:44;6.15;;;2.30;;
21754;SDS011;11039;50.028;19.938;2023-03-23T16:07:10;5.13;;;2.33;;
21754;SDS011;11039;50.028;19.938;2023-03-23T16:09:38;3.50;;;1.75;;
21754;SDS011;11039;50.028;19.938;2023-03-23T16:12:11;5.05;;;1.98;;
21754;SDS011;11039;50.028;19.938;2023-03-23T16:14:38;3.90;;;1.65;;
21754;SDS011;11039;50.028;19.938;2023-03-23T16:17:04;3.72;;;2.00;;
21754;SDS011;11039;50.028;19.938;2023-03-23T16:19:31;7.13;;;2.47;;
21754;SDS011;11039;50.028;19.938;2023-03-23T16:21:57;6.25;;;1.67;;
21754;SDS011;11039;50.028;19.938;2023-03-23T16:24:23;5.93;;;1.90;;
21754;SDS011;11039;50.028;19.938;2023-03-23T16:26:49;2.42;;;1.33;;
21754;SDS011;11039;50.028;19.938;2023-03-23T16:29:15;3.28;;;1.50;;
21754;SDS011;11039;50.028;19.938;2023-03-23T16:31:42;4.65;;;1.48;;